^^
Station Historical Data
Daily Summary for December 11, 2017 Units:  Both    English   Metric
« Previous Day
Next Day »
Daily Weekly Monthly Yearly Custom
  High: Low: Average:
Temperature: TemperatureF °F /  -17.8 °C 67.6 °F /  19.8 °C 79.8 °F /  26.6 °C
Dew Point: DewpointF °F /  -17.8 °C 23.7 °F /  -4.6 °C 35.5 °F /  1.9 °C
Humidity: Humidity% 9% 23%
Wind Speed: WindSpeedMPHmph /  0km/h - 1.8mph /  2.9km/h
Wind Gust: WindSpeedGustMPHmph /  0km/h - -
Wind- - SSW
Pressure: PressureIn in /  0 hPa 30.02 in /  1016.5 hPa -
Precipitation: 0.00 in /  0 mm    
Historical Graphs
 
 
Tabular Data for December 11, 2017
Time Temperature Dew Point Pressure Wind Wind Speed Wind Gust Humidity Rainfall Rate (Hourly) solar Conditions
TemperatureF °F /  -17.8 °C DewpointF °F /  -17.8 °C PressureInin /  0hPa Calm     Humidity% HourlyPrecipInin /  0mm SolarRadiationWatts/m^2 W/m2 Conditions
00:12 72.1 °F /  22.3 °C 45.9 °F /  7.7 °C 30.17in /  1021.6hPa ESE 2.0mph /  3.2km/h 3.0mph /  4.8km/h 39% 0.00in /  0mm 0.0 W/m2
00:22 72.1 °F /  22.3 °C 45.9 °F /  7.7 °C 30.17in /  1021.6hPa ENE 2.0mph /  3.2km/h 4.0mph /  6.4km/h 39% 0.00in /  0mm 0.0 W/m2
00:27 72.1 °F /  22.3 °C 47.1 °F /  8.4 °C 30.17in /  1021.6hPa Calm   2.0mph /  3.2km/h 41% 0.00in /  0mm 0.0 W/m2
00:32 72.1 °F /  22.3 °C 47.8 °F /  8.8 °C 30.17in /  1021.6hPa East 0.9mph /  1.4km/h 2.0mph /  3.2km/h 42% 0.00in /  0mm 0.0 W/m2
00:37 71.8 °F /  22.1 °C 47.5 °F /  8.6 °C 30.17in /  1021.6hPa Calm   1.0mph /  1.6km/h 42% 0.00in /  0mm 0.0 W/m2
00:42 71.8 °F /  22.1 °C 47.5 °F /  8.6 °C 30.16in /  1021.2hPa Calm   2.0mph /  3.2km/h 42% 0.00in /  0mm 0.0 W/m2
00:47 71.4 °F /  21.9 °C 47.1 °F /  8.4 °C 30.16in /  1021.2hPa Calm   1.0mph /  1.6km/h 42% 0.00in /  0mm 0.0 W/m2
00:52 71.4 °F /  21.9 °C 47.1 °F /  8.4 °C 30.16in /  1021.2hPa Calm     42% 0.00in /  0mm 0.0 W/m2
00:57 71.2 °F /  21.8 °C 46.9 °F /  8.3 °C 30.16in /  1021.2hPa Calm     42% 0.00in /  0mm 0.0 W/m2
01:02 71.2 °F /  21.8 °C 46.9 °F /  8.3 °C 30.16in /  1021.2hPa Calm   3.0mph /  4.8km/h 42% 0.00in /  0mm 0.0 W/m2
01:08 71.2 °F /  21.8 °C 46.9 °F /  8.3 °C 30.16in /  1021.2hPa Calm   1.0mph /  1.6km/h 42% 0.00in /  0mm 0.0 W/m2
01:13 71.1 °F /  21.7 °C 46.8 °F /  8.2 °C 30.15in /  1020.9hPa SSE 0.9mph /  1.4km/h 2.0mph /  3.2km/h 42% 0.00in /  0mm 0.0 W/m2
01:23 71.2 °F /  21.8 °C 46.9 °F /  8.3 °C 30.15in /  1020.9hPa SSE 0.9mph /  1.4km/h 2.0mph /  3.2km/h 42% 0.00in /  0mm 0.0 W/m2
01:28 71.2 °F /  21.8 °C 46.9 °F /  8.3 °C 30.15in /  1020.9hPa SSE 0.9mph /  1.4km/h 6.0mph /  9.7km/h 42% 0.00in /  0mm 0.0 W/m2
01:32 71.2 °F /  21.8 °C 46.9 °F /  8.3 °C 30.15in /  1020.9hPa Calm   2.0mph /  3.2km/h 42% 0.00in /  0mm 0.0 W/m2
01:38 71.2 °F /  21.8 °C 46.9 °F /  8.3 °C 30.14in /  1020.5hPa Calm   3.0mph /  4.8km/h 42% 0.00in /  0mm 0.0 W/m2
01:43 71.2 °F /  21.8 °C 47.7 °F /  8.7 °C 30.15in /  1020.9hPa Calm   2.0mph /  3.2km/h 43% 0.00in /  0mm 0.0 W/m2
01:48 71.2 °F /  21.8 °C 47.7 °F /  8.7 °C 30.15in /  1020.9hPa Calm   1.0mph /  1.6km/h 43% 0.00in /  0mm 0.0 W/m2
01:58 71.2 °F /  21.8 °C 47.7 °F /  8.7 °C 30.14in /  1020.5hPa SE 0.9mph /  1.4km/h 5.0mph /  8km/h 43% 0.00in /  0mm 0.0 W/m2
02:09 71.1 °F /  21.7 °C 48.0 °F /  8.9 °C 30.14in /  1020.5hPa Calm   2.0mph /  3.2km/h 44% 0.00in /  0mm 0.0 W/m2
02:14 71.1 °F /  21.7 °C 48.0 °F /  8.9 °C 30.14in /  1020.5hPa South 0.9mph /  1.4km/h 1.0mph /  1.6km/h 44% 0.00in /  0mm 0.0 W/m2
02:20 71.1 °F /  21.7 °C 47.5 °F /  8.6 °C 30.13in /  1020.2hPa SSE 4.9mph /  7.9km/h 6.0mph /  9.7km/h 43% 0.00in /  0mm 0.0 W/m2
02:25 71.1 °F /  21.7 °C 47.5 °F /  8.6 °C 30.13in /  1020.2hPa SSE 4.0mph /  6.4km/h 5.0mph /  8km/h 43% 0.00in /  0mm 0.0 W/m2
02:30 71.1 °F /  21.7 °C 47.5 °F /  8.6 °C 30.13in /  1020.2hPa ESE 4.0mph /  6.4km/h 8.0mph /  12.9km/h 43% 0.00in /  0mm 0.0 W/m2
02:35 71.1 °F /  21.7 °C 47.5 °F /  8.6 °C 30.13in /  1020.2hPa SSE 2.9mph /  4.7km/h 7.0mph /  11.3km/h 43% 0.00in /  0mm 0.0 W/m2
02:40 71.1 °F /  21.7 °C 47.5 °F /  8.6 °C 30.12in /  1019.9hPa SE 6.0mph /  9.7km/h 6.0mph /  9.7km/h 43% 0.00in /  0mm 0.0 W/m2
02:45 71.1 °F /  21.7 °C 47.5 °F /  8.6 °C 30.12in /  1019.9hPa SSE 6.0mph /  9.7km/h 8.0mph /  12.9km/h 43% 0.00in /  0mm 0.0 W/m2
02:50 71.1 °F /  21.7 °C 47.5 °F /  8.6 °C 30.12in /  1019.9hPa SE 2.0mph /  3.2km/h 7.0mph /  11.3km/h 43% 0.00in /  0mm 0.0 W/m2
03:01 70.9 °F /  21.6 °C 47.8 °F /  8.8 °C 30.12in /  1019.9hPa ESE 0.9mph /  1.4km/h 4.0mph /  6.4km/h 44% 0.00in /  0mm 0.0 W/m2
03:06 70.5 °F /  21.4 °C 47.5 °F /  8.6 °C 30.12in /  1019.9hPa SSE 2.0mph /  3.2km/h 3.0mph /  4.8km/h 44% 0.00in /  0mm 0.0 W/m2
03:11 70.3 °F /  21.3 °C 47.5 °F /  8.6 °C 30.12in /  1019.9hPa Calm   2.0mph /  3.2km/h 44% 0.00in /  0mm 0.0 W/m2
03:16 70.2 °F /  21.2 °C 47.3 °F /  8.5 °C 30.12in /  1019.9hPa SSE 0.9mph /  1.4km/h 2.0mph /  3.2km/h 44% 0.00in /  0mm 0.0 W/m2
03:21 70.0 °F /  21.1 °C 47.7 °F /  8.7 °C 30.12in /  1019.9hPa Calm   1.0mph /  1.6km/h 45% 0.00in /  0mm 0.0 W/m2
03:26 69.6 °F /  20.9 °C 47.3 °F /  8.5 °C 30.12in /  1019.9hPa Calm   2.0mph /  3.2km/h 45% 0.00in /  0mm 0.0 W/m2
03:31 69.4 °F /  20.8 °C 47.1 °F /  8.4 °C 30.12in /  1019.9hPa Calm   2.0mph /  3.2km/h 45% 0.00in /  0mm 0.0 W/m2
03:36 69.3 °F /  20.7 °C 46.9 °F /  8.3 °C 30.12in /  1019.9hPa Calm   1.0mph /  1.6km/h 45% 0.00in /  0mm 0.0 W/m2
03:42 69.1 °F /  20.6 °C 46.8 °F /  8.2 °C 30.12in /  1019.9hPa Calm   3.0mph /  4.8km/h 45% 0.00in /  0mm 0.0 W/m2
03:48 69.1 °F /  20.6 °C 45.7 °F /  7.6 °C 30.12in /  1019.9hPa SE 2.0mph /  3.2km/h 6.0mph /  9.7km/h 43% 0.00in /  0mm 0.0 W/m2
03:53 69.1 °F /  20.6 °C 44.4 °F /  6.9 °C 30.12in /  1019.9hPa SSE 4.0mph /  6.4km/h 6.0mph /  9.7km/h 41% 0.00in /  0mm 0.0 W/m2
03:58 69.3 °F /  20.7 °C 43.2 °F /  6.2 °C 30.12in /  1019.9hPa South 4.9mph /  7.9km/h 6.0mph /  9.7km/h 39% 0.00in /  0mm 0.0 W/m2
04:14 70.2 °F /  21.2 °C 43.3 °F /  6.3 °C 30.12in /  1019.9hPa Calm   2.0mph /  3.2km/h 38% 0.00in /  0mm 0.0 W/m2
04:30 70.0 °F /  21.1 °C 43.9 °F /  6.6 °C 30.12in /  1019.9hPa Calm   1.0mph /  1.6km/h 39% 0.00in /  0mm 0.0 W/m2
04:35 69.6 °F /  20.9 °C 43.5 °F /  6.4 °C 30.12in /  1019.9hPa Calm   2.0mph /  3.2km/h 39% 0.00in /  0mm 0.0 W/m2
04:40 69.3 °F /  20.7 °C 43.2 °F /  6.2 °C 30.12in /  1019.9hPa Calm   1.0mph /  1.6km/h 39% 0.00in /  0mm 0.0 W/m2
04:45 69.1 °F /  20.6 °C 43.2 °F /  6.2 °C 30.12in /  1019.9hPa Calm     39% 0.00in /  0mm 0.0 W/m2
04:50 68.7 °F /  20.4 °C 43.3 °F /  6.3 °C 30.12in /  1019.9hPa Calm     40% 0.00in /  0mm 0.0 W/m2
04:55 68.4 °F /  20.2 °C 42.4 °F /  5.8 °C 30.12in /  1019.9hPa Calm   2.0mph /  3.2km/h 39% 0.00in /  0mm 0.0 W/m2
05:00 68.0 °F /  20 °C 42.1 °F /  5.6 °C 30.12in /  1019.9hPa Calm     39% 0.00in /  0mm 0.0 W/m2
05:09 67.6 °F /  19.8 °C 39.0 °F /  3.9 °C 30.12in /  1019.9hPa ESE 4.9mph /  7.9km/h 6.0mph /  9.7km/h 35% 0.00in /  0mm 0.0 W/m2
05:14 67.8 °F /  19.9 °C 36.1 °F /  2.3 °C 30.12in /  1019.9hPa SSE 4.0mph /  6.4km/h 6.0mph /  9.7km/h 31% 0.00in /  0mm 0.0 W/m2
05:20 68.7 °F /  20.4 °C 34.3 °F /  1.3 °C 30.12in /  1019.9hPa SE 2.9mph /  4.7km/h 7.0mph /  11.3km/h 28% 0.00in /  0mm 0.0 W/m2
05:25 69.4 °F /  20.8 °C 34.9 °F /  1.6 °C 30.12in /  1019.9hPa SSE 4.0mph /  6.4km/h 9.0mph /  14.5km/h 28% 0.00in /  0mm 0.0 W/m2
05:35 70.0 °F /  21.1 °C 35.4 °F /  1.9 °C 30.12in /  1019.9hPa SSE 4.9mph /  7.9km/h 8.0mph /  12.9km/h 28% 0.00in /  0mm 0.0 W/m2
05:40 70.2 °F /  21.2 °C 34.7 °F /  1.5 °C 30.13in /  1020.2hPa SSE 4.9mph /  7.9km/h 7.0mph /  11.3km/h 27% 0.00in /  0mm 0.0 W/m2
05:45 70.3 °F /  21.3 °C 34.7 °F /  1.5 °C 30.12in /  1019.9hPa SSE 6.9mph /  11.1km/h 7.0mph /  11.3km/h 27% 0.00in /  0mm 0.0 W/m2
05:50 70.3 °F /  21.3 °C 34.7 °F /  1.5 °C 30.12in /  1019.9hPa SE 2.0mph /  3.2km/h 5.0mph /  8km/h 27% 0.00in /  0mm 0.0 W/m2
06:00 70.0 °F /  21.1 °C 34.5 °F /  1.4 °C 30.12in /  1019.9hPa SSE 2.0mph /  3.2km/h 5.0mph /  8km/h 27% 0.00in /  0mm 0.0 W/m2
06:06 69.6 °F /  20.9 °C 34.2 °F /  1.2 °C 30.13in /  1020.2hPa SE 0.9mph /  1.4km/h 4.0mph /  6.4km/h 27% 0.00in /  0mm 5.0 W/m2
06:26 69.3 °F /  20.7 °C 33.8 °F /  1 °C 30.13in /  1020.2hPa South 4.0mph /  6.4km/h 4.0mph /  6.4km/h 27% 0.00in /  0mm 21.0 W/m2
06:36 69.8 °F /  21 °C 31.5 °F /  -0.3 °C 30.13in /  1020.2hPa South 4.0mph /  6.4km/h 7.0mph /  11.3km/h 24% 0.00in /  0mm 26.0 W/m2
06:51 71.2 °F /  21.8 °C 28.0 °F /  -2.2 °C 30.14in /  1020.5hPa SE 0.9mph /  1.4km/h 10.0mph /  16.1km/h 20% 0.00in /  0mm 30.0 W/m2
06:57 71.8 °F /  22.1 °C 28.6 °F /  -1.9 °C 30.14in /  1020.5hPa Calm   2.0mph /  3.2km/h 20% 0.00in /  0mm 28.0 W/m2
07:12 72.3 °F /  22.4 °C 33.4 °F /  0.8 °C 30.15in /  1020.9hPa NNW 2.9mph /  4.7km/h 3.0mph /  4.8km/h 24% 0.00in /  0mm 33.0 W/m2
07:17 72.3 °F /  22.4 °C 32.4 °F /  0.2 °C 30.15in /  1020.9hPa NW 0.9mph /  1.4km/h 1.0mph /  1.6km/h 23% 0.00in /  0mm 33.0 W/m2
07:22 72.5 °F /  22.5 °C 33.6 °F /  0.9 °C 30.15in /  1020.9hPa Calm     24% 0.00in /  0mm 35.0 W/m2
07:32 72.7 °F /  22.6 °C 33.8 °F /  1 °C 30.16in /  1021.2hPa SSW 2.0mph /  3.2km/h 3.0mph /  4.8km/h 24% 0.00in /  0mm 118.0 W/m2
07:38 72.9 °F /  22.7 °C 30.6 °F /  -0.8 °C 30.16in /  1021.2hPa Calm     21% 0.00in /  0mm 204.0 W/m2
07:43 73.2 °F /  22.9 °C 30.9 °F /  -0.6 °C 30.16in /  1021.2hPa Calm     21% 0.00in /  0mm 69.0 W/m2
07:53 73.6 °F /  23.1 °C 33.4 °F /  0.8 °C 30.17in /  1021.6hPa NNW 0.9mph /  1.4km/h 1.0mph /  1.6km/h 23% 0.00in /  0mm 77.0 W/m2
07:58 73.8 °F /  23.2 °C 36.7 °F /  2.6 °C 30.17in /  1021.6hPa Calm     26% 0.00in /  0mm 125.0 W/m2
08:03 73.8 °F /  23.2 °C 33.6 °F /  0.9 °C 30.17in /  1021.6hPa Calm   1.0mph /  1.6km/h 23% 0.00in /  0mm 137.0 W/m2
08:18 76.3 °F /  24.6 °C 30.9 °F /  -0.6 °C 30.17in /  1021.6hPa Calm   2.0mph /  3.2km/h 19% 0.00in /  0mm 469.0 W/m2
08:23 77.0 °F /  25 °C 31.6 °F /  -0.2 °C 30.17in /  1021.6hPa WSW 2.0mph /  3.2km/h 5.0mph /  8km/h 19% 0.00in /  0mm 480.0 W/m2
08:29 77.7 °F /  25.4 °C 29.5 °F /  -1.4 °C 30.17in /  1021.6hPa Calm   2.0mph /  3.2km/h 17% 0.00in /  0mm 603.0 W/m2
08:34 78.6 °F /  25.9 °C 28.8 °F /  -1.8 °C 30.17in /  1021.6hPa WSW 0.9mph /  1.4km/h 7.0mph /  11.3km/h 16% 0.00in /  0mm 599.0 W/m2
08:39 79.3 °F /  26.3 °C 29.3 °F /  -1.5 °C 30.17in /  1021.6hPa Calm   4.0mph /  6.4km/h 16% 0.00in /  0mm 670.0 W/m2
08:44 79.9 °F /  26.6 °C 28.0 °F /  -2.2 °C 30.16in /  1021.2hPa South 2.9mph /  4.7km/h 3.0mph /  4.8km/h 15% 0.00in /  0mm 680.0 W/m2
08:49 80.2 °F /  26.8 °C 28.4 °F /  -2 °C 30.16in /  1021.2hPa ESE 4.0mph /  6.4km/h 4.0mph /  6.4km/h 15% 0.00in /  0mm 670.0 W/m2
08:59 81.1 °F /  27.3 °C 29.1 °F /  -1.6 °C 30.16in /  1021.2hPa WSW 0.9mph /  1.4km/h 5.0mph /  8km/h 15% 0.00in /  0mm 657.0 W/m2
09:09 82.2 °F /  27.9 °C 26.4 °F /  -3.1 °C 30.16in /  1021.2hPa NW 2.0mph /  3.2km/h 4.0mph /  6.4km/h 13% 0.00in /  0mm 680.0 W/m2
09:14 83.5 °F /  28.6 °C 25.5 °F /  -3.6 °C 30.16in /  1021.2hPa North 2.0mph /  3.2km/h 3.0mph /  4.8km/h 12% 0.00in /  0mm 700.0 W/m2
09:20 84.0 °F /  28.9 °C 25.9 °F /  -3.4 °C 30.16in /  1021.2hPa Calm   2.0mph /  3.2km/h 12% 0.00in /  0mm 717.0 W/m2
09:25 84.0 °F /  28.9 °C 27.9 °F /  -2.3 °C 30.16in /  1021.2hPa South 0.9mph /  1.4km/h 2.0mph /  3.2km/h 13% 0.00in /  0mm 737.0 W/m2
09:30 83.8 °F /  28.8 °C 27.7 °F /  -2.4 °C 30.16in /  1021.2hPa Calm   6.0mph /  9.7km/h 13% 0.00in /  0mm 752.0 W/m2
09:35 84.0 °F /  28.9 °C 29.7 °F /  -1.3 °C 30.16in /  1021.2hPa Calm   2.0mph /  3.2km/h 14% 0.00in /  0mm 766.0 W/m2
09:40 84.6 °F /  29.2 °C 28.4 °F /  -2 °C 30.15in /  1020.9hPa Calm   1.0mph /  1.6km/h 13% 0.00in /  0mm 788.0 W/m2
09:45 84.9 °F /  29.4 °C 28.6 °F /  -1.9 °C 30.15in /  1020.9hPa ENE 2.0mph /  3.2km/h 8.0mph /  12.9km/h 13% 0.00in /  0mm 802.0 W/m2
09:56 85.6 °F /  29.8 °C 30.9 °F /  -0.6 °C 30.15in /  1020.9hPa SE 4.0mph /  6.4km/h 8.0mph /  12.9km/h 14% 0.00in /  0mm 837.0 W/m2
10:01 86.0 °F /  30 °C 27.5 °F /  -2.5 °C 30.15in /  1020.9hPa East 4.0mph /  6.4km/h 7.0mph /  11.3km/h 12% 0.00in /  0mm 849.0 W/m2
10:06 86.4 °F /  30.2 °C 27.7 °F /  -2.4 °C 30.15in /  1020.9hPa NNE 0.9mph /  1.4km/h 10.0mph /  16.1km/h 12% 0.00in /  0mm 860.0 W/m2
10:11 86.5 °F /  30.3 °C 29.8 °F /  -1.2 °C 30.15in /  1020.9hPa East 4.9mph /  7.9km/h 7.0mph /  11.3km/h 13% 0.00in /  0mm 875.0 W/m2
10:16 86.7 °F /  30.4 °C 30.0 °F /  -1.1 °C 30.16in /  1021.2hPa NNW 0.9mph /  1.4km/h 6.0mph /  9.7km/h 13% 0.00in /  0mm 888.0 W/m2
10:21 87.1 °F /  30.6 °C 30.2 °F /  -1 °C 30.16in /  1021.2hPa SE 4.0mph /  6.4km/h 6.0mph /  9.7km/h 13% 0.00in /  0mm 900.0 W/m2
10:22 87.1 °F /  30.6 °C 28.4 °F /  -2 °C 30.16in /  1021.2hPa East 0.9mph /  1.4km/h 6.0mph /  9.7km/h 12% 0.00in /  0mm 902.0 W/m2
10:38 87.6 °F /  30.9 °C 28.8 °F /  -1.8 °C 30.15in /  1020.9hPa North 6.0mph /  9.7km/h 7.0mph /  11.3km/h 12% 0.00in /  0mm 937.0 W/m2
10:58 88.5 °F /  31.4 °C 27.3 °F /  -2.6 °C 30.15in /  1020.9hPa NNW 4.9mph /  7.9km/h 9.0mph /  14.5km/h 11% 0.00in /  0mm 984.0 W/m2
11:03 88.7 °F /  31.5 °C 27.5 °F /  -2.5 °C 30.15in /  1020.9hPa NW 2.0mph /  3.2km/h 5.0mph /  8km/h 11% 0.00in /  0mm 991.0 W/m2
11:13 89.1 °F /  31.7 °C 27.7 °F /  -2.4 °C 30.15in /  1020.9hPa North 2.9mph /  4.7km/h 9.0mph /  14.5km/h 11% 0.00in /  0mm 1011.0 W/m2
11:18 88.9 °F /  31.6 °C 25.3 °F /  -3.7 °C 30.15in /  1020.9hPa West 2.9mph /  4.7km/h 6.0mph /  9.7km/h 10% 0.00in /  0mm 1020.0 W/m2
11:23 89.1 °F /  31.7 °C 27.7 °F /  -2.4 °C 30.15in /  1020.9hPa Calm   7.0mph /  11.3km/h 11% 0.00in /  0mm 1027.0 W/m2
11:28 89.2 °F /  31.8 °C 27.9 °F /  -2.3 °C 30.15in /  1020.9hPa NNW 4.0mph /  6.4km/h 7.0mph /  11.3km/h 11% 0.00in /  0mm 1037.0 W/m2
11:34 89.8 °F /  32.1 °C 25.9 °F /  -3.4 °C 30.15in /  1020.9hPa NW 4.9mph /  7.9km/h 7.0mph /  11.3km/h 10% 0.00in /  0mm 1044.0 W/m2
11:39 90.1 °F /  32.3 °C 26.2 °F /  -3.2 °C 30.15in /  1020.9hPa NW 2.0mph /  3.2km/h 7.0mph /  11.3km/h 10% 0.00in /  0mm 1060.0 W/m2
11:45 90.3 °F /  32.4 °C 28.8 °F /  -1.8 °C 30.15in /  1020.9hPa NW 0.9mph /  1.4km/h 5.0mph /  8km/h 11% 0.00in /  0mm 923.0 W/m2
11:50 90.3 °F /  32.4 °C 26.4 °F /  -3.1 °C 30.15in /  1020.9hPa ENE 2.9mph /  4.7km/h 8.0mph /  12.9km/h 10% 0.00in /  0mm 1109.0 W/m2
11:55 90.1 °F /  32.3 °C 23.7 °F /  -4.6 °C 30.15in /  1020.9hPa NNW 0.9mph /  1.4km/h 4.0mph /  6.4km/h 9% 0.00in /  0mm 1220.0 W/m2
12:00 90.3 °F /  32.4 °C 26.4 °F /  -3.1 °C 30.15in /  1020.9hPa Calm   4.0mph /  6.4km/h 10% 0.00in /  0mm 1104.0 W/m2
12:10 90.3 °F /  32.4 °C 26.4 °F /  -3.1 °C 30.15in /  1020.9hPa South 2.0mph /  3.2km/h 3.0mph /  4.8km/h 10% 0.00in /  0mm 1118.0 W/m2
12:15 90.3 °F /  32.4 °C 28.8 °F /  -1.8 °C 30.14in /  1020.5hPa East 2.0mph /  3.2km/h 6.0mph /  9.7km/h 11% 0.00in /  0mm 1076.0 W/m2
12:26 90.3 °F /  32.4 °C 28.8 °F /  -1.8 °C 30.14in /  1020.5hPa SW 2.9mph /  4.7km/h 9.0mph /  14.5km/h 11% 0.00in /  0mm 1118.0 W/m2
12:31 90.5 °F /  32.5 °C 28.8 °F /  -1.8 °C 30.14in /  1020.5hPa East 8.1mph /  13km/h 9.0mph /  14.5km/h 11% 0.00in /  0mm 1100.0 W/m2
12:36 90.3 °F /  32.4 °C 28.8 °F /  -1.8 °C 30.14in /  1020.5hPa SE 2.9mph /  4.7km/h 9.0mph /  14.5km/h 11% 0.00in /  0mm 1078.0 W/m2
12:41 90.0 °F /  32.2 °C 28.4 °F /  -2 °C 30.13in /  1020.2hPa Calm   2.0mph /  3.2km/h 11% 0.00in /  0mm 1067.0 W/m2
12:46 90.3 °F /  32.4 °C 28.8 °F /  -1.8 °C 30.13in /  1020.2hPa Calm   3.0mph /  4.8km/h 11% 0.00in /  0mm 1078.0 W/m2
12:51 90.9 °F /  32.7 °C 29.1 °F /  -1.6 °C 30.13in /  1020.2hPa North 2.9mph /  4.7km/h 3.0mph /  4.8km/h 11% 0.00in /  0mm 1074.0 W/m2
12:57 91.8 °F /  33.2 °C 29.8 °F /  -1.2 °C 30.13in /  1020.2hPa NW 8.9mph /  14.3km/h 12.0mph /  19.3km/h 11% 0.00in /  0mm 1090.0 W/m2
13:02 92.1 °F /  33.4 °C 30.0 °F /  -1.1 °C 30.12in /  1019.9hPa ESE 4.9mph /  7.9km/h 5.0mph /  8km/h 11% 0.00in /  0mm 1076.0 W/m2
13:07 92.5 °F /  33.6 °C 32.5 °F /  0.3 °C 30.12in /  1019.9hPa NNW 2.9mph /  4.7km/h 6.0mph /  9.7km/h 12% 0.00in /  0mm 1074.0 W/m2
13:18 91.9 °F /  33.3 °C 32.0 °F /  0 °C 30.11in /  1019.5hPa WSW 2.0mph /  3.2km/h 10.0mph /  16.1km/h 12% 0.00in /  0mm 1083.0 W/m2
13:23 91.9 °F /  33.3 °C 30.0 °F /  -1.1 °C 30.12in /  1019.9hPa NNW 2.9mph /  4.7km/h 7.0mph /  11.3km/h 11% 0.00in /  0mm 1081.0 W/m2
13:28 92.3 °F /  33.5 °C 30.2 °F /  -1 °C 30.11in /  1019.5hPa NNW 2.9mph /  4.7km/h 8.0mph /  12.9km/h 11% 0.00in /  0mm 1074.0 W/m2
13:33 92.7 °F /  33.7 °C 30.6 °F /  -0.8 °C 30.11in /  1019.5hPa ENE 8.1mph /  13km/h 9.0mph /  14.5km/h 11% 0.00in /  0mm 1067.0 W/m2
13:43 93.2 °F /  34 °C 30.9 °F /  -0.6 °C 30.10in /  1019.2hPa North 0.9mph /  1.4km/h 3.0mph /  4.8km/h 11% 0.00in /  0mm 1051.0 W/m2
13:48 93.6 °F /  34.2 °C 28.8 °F /  -1.8 °C 30.10in /  1019.2hPa North 2.9mph /  4.7km/h 7.0mph /  11.3km/h 10% 0.00in /  0mm 1046.0 W/m2
13:53 93.6 °F /  34.2 °C 28.8 °F /  -1.8 °C 30.09in /  1018.8hPa North 4.0mph /  6.4km/h 5.0mph /  8km/h 10% 0.00in /  0mm 1035.0 W/m2
13:58 93.6 °F /  34.2 °C 28.8 °F /  -1.8 °C 30.09in /  1018.8hPa Calm   4.0mph /  6.4km/h 10% 0.00in /  0mm 1027.0 W/m2
14:09 93.7 °F /  34.3 °C 31.3 °F /  -0.4 °C 30.09in /  1018.8hPa Calm   8.0mph /  12.9km/h 11% 0.00in /  0mm 1011.0 W/m2
14:14 93.9 °F /  34.4 °C 31.5 °F /  -0.3 °C 30.08in /  1018.5hPa NW 2.9mph /  4.7km/h 8.0mph /  12.9km/h 11% 0.00in /  0mm 1002.0 W/m2
14:19 94.5 °F /  34.7 °C 31.8 °F /  -0.1 °C 30.08in /  1018.5hPa SW 2.9mph /  4.7km/h 9.0mph /  14.5km/h 11% 0.00in /  0mm 1007.0 W/m2
14:24 94.3 °F /  34.6 °C 31.6 °F /  -0.2 °C 30.08in /  1018.5hPa WSW 2.9mph /  4.7km/h 5.0mph /  8km/h 11% 0.00in /  0mm 1009.0 W/m2
14:29 94.3 °F /  34.6 °C 31.6 °F /  -0.2 °C 30.07in /  1018.2hPa Calm   6.0mph /  9.7km/h 11% 0.00in /  0mm 991.0 W/m2
14:34 94.6 °F /  34.8 °C 32.0 °F /  0 °C 30.07in /  1018.2hPa West 2.0mph /  3.2km/h 8.0mph /  12.9km/h 11% 0.00in /  0mm 997.0 W/m2
14:44 94.1 °F /  34.5 °C 33.8 °F /  1 °C 30.07in /  1018.2hPa SW 2.9mph /  4.7km/h 5.0mph /  8km/h 12% 0.00in /  0mm 969.0 W/m2
15:00 94.1 °F /  34.5 °C 31.6 °F /  -0.2 °C 30.07in /  1018.2hPa NW 0.9mph /  1.4km/h 3.0mph /  4.8km/h 11% 0.00in /  0mm 949.0 W/m2
15:05 94.8 °F /  34.9 °C 29.8 °F /  -1.2 °C 30.06in /  1017.8hPa West 2.0mph /  3.2km/h 5.0mph /  8km/h 10% 0.00in /  0mm 947.0 W/m2
15:15 95.2 °F /  35.1 °C 30.0 °F /  -1.1 °C 30.06in /  1017.8hPa SSW 0.9mph /  1.4km/h 6.0mph /  9.7km/h 10% 0.00in /  0mm 919.0 W/m2
15:25 95.9 °F /  35.5 °C 30.6 °F /  -0.8 °C 30.06in /  1017.8hPa SSW 2.9mph /  4.7km/h 5.0mph /  8km/h 10% 0.00in /  0mm 139.0 W/m2
15:41 92.1 °F /  33.4 °C 27.7 °F /  -2.4 °C 30.05in /  1017.5hPa Calm   1.0mph /  1.6km/h 10% 0.00in /  0mm 141.0 W/m2
15:46 91.9 °F /  33.3 °C 30.0 °F /  -1.1 °C 30.04in /  1017.2hPa Calm   2.0mph /  3.2km/h 11% 0.00in /  0mm 134.0 W/m2
15:51 91.8 °F /  33.2 °C 29.8 °F /  -1.2 °C 30.04in /  1017.2hPa South 6.9mph /  11.1km/h 7.0mph /  11.3km/h 11% 0.00in /  0mm 151.0 W/m2
15:56 90.9 °F /  32.7 °C 31.3 °F /  -0.4 °C 30.04in /  1017.2hPa West 4.9mph /  7.9km/h 8.0mph /  12.9km/h 12% 0.00in /  0mm 144.0 W/m2
16:06 90.0 °F /  32.2 °C 32.5 °F /  0.3 °C 30.04in /  1017.2hPa SW 0.9mph /  1.4km/h 4.0mph /  6.4km/h 13% 0.00in /  0mm 141.0 W/m2
16:16 89.4 °F /  31.9 °C 32.2 °F /  0.1 °C 30.04in /  1017.2hPa WSW 4.9mph /  7.9km/h 5.0mph /  8km/h 13% 0.00in /  0mm 128.0 W/m2
16:21 89.2 °F /  31.8 °C 32.0 °F /  0 °C 30.03in /  1016.8hPa Calm   2.0mph /  3.2km/h 13% 0.00in /  0mm 120.0 W/m2
16:32 89.2 °F /  31.8 °C 32.0 °F /  0 °C 30.03in /  1016.8hPa SSE 2.0mph /  3.2km/h 2.0mph /  3.2km/h 13% 0.00in /  0mm 109.0 W/m2
16:43 89.4 °F /  31.9 °C 30.2 °F /  -1 °C 30.03in /  1016.8hPa South 2.0mph /  3.2km/h 3.0mph /  4.8km/h 12% 0.00in /  0mm 118.0 W/m2
16:48 89.2 °F /  31.8 °C 32.0 °F /  0 °C 30.03in /  1016.8hPa Calm   1.0mph /  1.6km/h 13% 0.00in /  0mm 121.0 W/m2
16:53 89.1 °F /  31.7 °C 31.8 °F /  -0.1 °C 30.03in /  1016.8hPa Calm   1.0mph /  1.6km/h 13% 0.00in /  0mm 123.0 W/m2
16:58 89.2 °F /  31.8 °C 32.0 °F /  0 °C 30.03in /  1016.8hPa Calm   1.0mph /  1.6km/h 13% 0.00in /  0mm 127.0 W/m2
17:03 89.2 °F /  31.8 °C 30.0 °F /  -1.1 °C 30.03in /  1016.8hPa ESE 0.9mph /  1.4km/h 6.0mph /  9.7km/h 12% 0.00in /  0mm 125.0 W/m2
17:14 89.2 °F /  31.8 °C 30.0 °F /  -1.1 °C 30.02in /  1016.5hPa SE 0.9mph /  1.4km/h 3.0mph /  4.8km/h 12% 0.00in /  0mm 127.0 W/m2
17:19 89.2 °F /  31.8 °C 30.0 °F /  -1.1 °C 30.02in /  1016.5hPa ESE 2.0mph /  3.2km/h 5.0mph /  8km/h 12% 0.00in /  0mm 128.0 W/m2
17:24 89.4 °F /  31.9 °C 30.2 °F /  -1 °C 30.02in /  1016.5hPa SW 0.9mph /  1.4km/h 4.0mph /  6.4km/h 12% 0.00in /  0mm 125.0 W/m2
17:29 89.2 °F /  31.8 °C 30.0 °F /  -1.1 °C 30.02in /  1016.5hPa Calm   1.0mph /  1.6km/h 12% 0.00in /  0mm 114.0 W/m2
17:34 89.2 °F /  31.8 °C 32.0 °F /  0 °C 30.02in /  1016.5hPa SSW 0.9mph /  1.4km/h 3.0mph /  4.8km/h 13% 0.00in /  0mm 109.0 W/m2
17:39 89.2 °F /  31.8 °C 32.0 °F /  0 °C 30.02in /  1016.5hPa Calm   4.0mph /  6.4km/h 13% 0.00in /  0mm 102.0 W/m2
17:44 89.1 °F /  31.7 °C 29.8 °F /  -1.2 °C 30.02in /  1016.5hPa Calm   2.0mph /  3.2km/h 12% 0.00in /  0mm 98.0 W/m2
17:49 89.1 °F /  31.7 °C 29.8 °F /  -1.2 °C 30.02in /  1016.5hPa Calm   1.0mph /  1.6km/h 12% 0.00in /  0mm 98.0 W/m2
18:00 88.5 °F /  31.4 °C 29.5 °F /  -1.4 °C 30.02in /  1016.5hPa WSW 0.9mph /  1.4km/h 1.0mph /  1.6km/h 12% 0.00in /  0mm 77.0 W/m2
18:11 88.3 °F /  31.3 °C 29.3 °F /  -1.5 °C 30.02in /  1016.5hPa WSW 2.0mph /  3.2km/h 5.0mph /  8km/h 12% 0.00in /  0mm 123.0 W/m2
18:16 88.3 °F /  31.3 °C 29.3 °F /  -1.5 °C 30.02in /  1016.5hPa WSW 2.0mph /  3.2km/h 5.0mph /  8km/h 12% 0.00in /  0mm 190.0 W/m2
18:21 88.9 °F /  31.6 °C 29.7 °F /  -1.3 °C 30.02in /  1016.5hPa WSW 4.0mph /  6.4km/h 8.0mph /  12.9km/h 12% 0.00in /  0mm 77.0 W/m2
18:42 88.5 °F /  31.4 °C 33.3 °F /  0.7 °C 30.02in /  1016.5hPa WSW 4.9mph /  7.9km/h 8.0mph /  12.9km/h 14% 0.00in /  0mm 72.0 W/m2
18:47 88.0 °F /  31.1 °C 32.9 °F /  0.5 °C 30.02in /  1016.5hPa South 4.9mph /  7.9km/h 8.0mph /  12.9km/h 14% 0.00in /  0mm 51.0 W/m2
18:53 87.4 °F /  30.8 °C 34.2 °F /  1.2 °C 30.02in /  1016.5hPa WSW 4.9mph /  7.9km/h 14.0mph /  22.5km/h 15% 0.00in /  0mm 32.0 W/m2
18:58 87.1 °F /  30.6 °C 35.4 °F /  1.9 °C 30.02in /  1016.5hPa WSW 2.0mph /  3.2km/h 8.0mph /  12.9km/h 16% 0.00in /  0mm 26.0 W/m2
19:03 86.4 °F /  30.2 °C 36.3 °F /  2.4 °C 30.02in /  1016.5hPa SW 6.0mph /  9.7km/h 12.0mph /  19.3km/h 17% 0.00in /  0mm 21.0 W/m2
19:32 82.9 °F /  28.3 °C 40.1 °F /  4.5 °C 30.04in /  1017.2hPa WNW 2.0mph /  3.2km/h 11.0mph /  17.7km/h 22% 0.00in /  0mm 0.0 W/m2
19:37 82.2 °F /  27.9 °C 39.6 °F /  4.2 °C 30.04in /  1017.2hPa WSW 8.9mph /  14.3km/h 11.0mph /  17.7km/h 22% 0.00in /  0mm 0.0 W/m2
19:48 81.3 °F /  27.4 °C 39.9 °F /  4.4 °C 30.04in /  1017.2hPa SW 4.9mph /  7.9km/h 10.0mph /  16.1km/h 23% 0.00in /  0mm 0.0 W/m2
19:53 81.0 °F /  27.2 °C 40.8 °F /  4.9 °C 30.05in /  1017.5hPa SW 6.0mph /  9.7km/h 10.0mph /  16.1km/h 24% 0.00in /  0mm 0.0 W/m2
19:58 80.6 °F /  27 °C 40.5 °F /  4.7 °C 30.05in /  1017.5hPa WSW 2.0mph /  3.2km/h 10.0mph /  16.1km/h 24% 0.00in /  0mm 0.0 W/m2
20:03 80.4 °F /  26.9 °C 40.3 °F /  4.6 °C 30.05in /  1017.5hPa WSW 4.0mph /  6.4km/h 6.0mph /  9.7km/h 24% 0.00in /  0mm 0.0 W/m2
20:08 80.1 °F /  26.7 °C 40.1 °F /  4.5 °C 30.05in /  1017.5hPa SSE 2.0mph /  3.2km/h 10.0mph /  16.1km/h 24% 0.00in /  0mm 0.0 W/m2
20:13 79.7 °F /  26.5 °C 40.8 °F /  4.9 °C 30.06in /  1017.8hPa South 2.9mph /  4.7km/h 8.0mph /  12.9km/h 25% 0.00in /  0mm 0.0 W/m2
20:18 79.3 °F /  26.3 °C 40.5 °F /  4.7 °C 30.05in /  1017.5hPa West 4.9mph /  7.9km/h 5.0mph /  8km/h 25% 0.00in /  0mm 0.0 W/m2
20:29 79.0 °F /  26.1 °C 40.1 °F /  4.5 °C 30.06in /  1017.8hPa West 6.9mph /  11.1km/h 8.0mph /  12.9km/h 25% 0.00in /  0mm 0.0 W/m2
20:39 78.4 °F /  25.8 °C 40.6 °F /  4.8 °C 30.06in /  1017.8hPa Calm   4.0mph /  6.4km/h 26% 0.00in /  0mm 0.0 W/m2
20:44 78.3 °F /  25.7 °C 40.6 °F /  4.8 °C 30.06in /  1017.8hPa West 0.9mph /  1.4km/h 7.0mph /  11.3km/h 26% 0.00in /  0mm 0.0 W/m2
20:49 78.1 °F /  25.6 °C 40.5 °F /  4.7 °C 30.06in /  1017.8hPa Calm   2.0mph /  3.2km/h 26% 0.00in /  0mm 0.0 W/m2
20:54 77.9 °F /  25.5 °C 39.2 °F /  4 °C 30.06in /  1017.8hPa SSW 2.9mph /  4.7km/h 6.0mph /  9.7km/h 25% 0.00in /  0mm 0.0 W/m2
20:59 77.7 °F /  25.4 °C 39.0 °F /  3.9 °C 30.07in /  1018.2hPa SW 2.9mph /  4.7km/h 5.0mph /  8km/h 25% 0.00in /  0mm 0.0 W/m2
21:05 77.7 °F /  25.4 °C 39.0 °F /  3.9 °C 30.06in /  1017.8hPa WSW 0.9mph /  1.4km/h 3.0mph /  4.8km/h 25% 0.00in /  0mm 0.0 W/m2
21:15 77.5 °F /  25.3 °C 37.9 °F /  3.3 °C 30.07in /  1018.2hPa SW 4.0mph /  6.4km/h 5.0mph /  8km/h 24% 0.00in /  0mm 0.0 W/m2
21:20 77.5 °F /  25.3 °C 36.9 °F /  2.7 °C 30.07in /  1018.2hPa Calm   2.0mph /  3.2km/h 23% 0.00in /  0mm 0.0 W/m2
21:30 77.4 °F /  25.2 °C 35.6 °F /  2 °C 30.07in /  1018.2hPa Calm   3.0mph /  4.8km/h 22% 0.00in /  0mm 0.0 W/m2
21:36 77.4 °F /  25.2 °C 35.6 °F /  2 °C 30.08in /  1018.5hPa SE 0.9mph /  1.4km/h 4.0mph /  6.4km/h 22% 0.00in /  0mm 0.0 W/m2
21:46 76.8 °F /  24.9 °C 36.1 °F /  2.3 °C 30.08in /  1018.5hPa Calm     23% 0.00in /  0mm 0.0 W/m2
21:56 76.3 °F /  24.6 °C 36.9 °F /  2.7 °C 30.08in /  1018.5hPa Calm     24% 0.00in /  0mm 0.0 W/m2
22:01 75.7 °F /  24.3 °C 36.3 °F /  2.4 °C 30.09in /  1018.8hPa Calm   1.0mph /  1.6km/h 24% 0.00in /  0mm 0.0 W/m2
22:06 75.4 °F /  24.1 °C 37.0 °F /  2.8 °C 30.09in /  1018.8hPa Calm     25% 0.00in /  0mm 0.0 W/m2
22:21 74.5 °F /  23.6 °C 36.3 °F /  2.4 °C 30.10in /  1019.2hPa SSE 0.9mph /  1.4km/h 3.0mph /  4.8km/h 25% 0.00in /  0mm 0.0 W/m2
22:27 74.5 °F /  23.6 °C 37.4 °F /  3 °C 30.10in /  1019.2hPa Calm   3.0mph /  4.8km/h 26% 0.00in /  0mm 0.0 W/m2
22:32 74.5 °F /  23.6 °C 37.4 °F /  3 °C 30.10in /  1019.2hPa Calm   3.0mph /  4.8km/h 26% 0.00in /  0mm 0.0 W/m2
22:37 74.5 °F /  23.6 °C 37.4 °F /  3 °C 30.10in /  1019.2hPa Calm   3.0mph /  4.8km/h 26% 0.00in /  0mm 0.0 W/m2
22:43 74.5 °F /  23.6 °C 37.4 °F /  3 °C 30.10in /  1019.2hPa Calm   1.0mph /  1.6km/h 26% 0.00in /  0mm 0.0 W/m2
22:48 74.5 °F /  23.6 °C 37.4 °F /  3 °C 30.11in /  1019.5hPa Calm   2.0mph /  3.2km/h 26% 0.00in /  0mm 0.0 W/m2
22:58 74.1 °F /  23.4 °C 37.0 °F /  2.8 °C 30.11in /  1019.5hPa Calm   2.0mph /  3.2km/h 26% 0.00in /  0mm 0.0 W/m2
23:03 73.9 °F /  23.3 °C 36.9 °F /  2.7 °C 30.11in /  1019.5hPa Calm   3.0mph /  4.8km/h 26% 0.00in /  0mm 0.0 W/m2
23:13 73.8 °F /  23.2 °C 35.8 °F /  2.1 °C 30.11in /  1019.5hPa SSE 6.0mph /  9.7km/h 7.0mph /  11.3km/h 25% 0.00in /  0mm 0.0 W/m2
23:18 73.6 °F /  23.1 °C 35.6 °F /  2 °C 30.11in /  1019.5hPa SSW 0.9mph /  1.4km/h 1.0mph /  1.6km/h 25% 0.00in /  0mm 0.0 W/m2
23:23 73.6 °F /  23.1 °C 35.6 °F /  2 °C 30.11in /  1019.5hPa SE 2.0mph /  3.2km/h 2.0mph /  3.2km/h 25% 0.00in /  0mm 0.0 W/m2
23:28 73.4 °F /  23 °C 36.5 °F /  2.5 °C 30.11in /  1019.5hPa Calm     26% 0.00in /  0mm 0.0 W/m2
23:34 73.2 °F /  22.9 °C 36.3 °F /  2.4 °C 30.11in /  1019.5hPa Calm     26% 0.00in /  0mm 0.0 W/m2
23:39 73.0 °F /  22.8 °C 37.0 °F /  2.8 °C 30.11in /  1019.5hPa SW 0.9mph /  1.4km/h 1.0mph /  1.6km/h 27% 0.00in /  0mm 0.0 W/m2
23:44 72.9 °F /  22.7 °C 36.0 °F /  2.2 °C 30.11in /  1019.5hPa Calm   2.0mph /  3.2km/h 26% 0.00in /  0mm 0.0 W/m2
23:49 72.7 °F /  22.6 °C 36.9 °F /  2.7 °C 30.11in /  1019.5hPa Calm   1.0mph /  1.6km/h 27% 0.00in /  0mm 0.0 W/m2
23:54 72.3 °F /  22.4 °C 36.5 °F /  2.5 °C 30.11in /  1019.5hPa Calm     27% 0.00in /  0mm 0.0 W/m2
23:59 72.1 °F /  22.3 °C 36.3 °F /  2.4 °C 30.10in /  1019.2hPa Calm   1.0mph /  1.6km/h 27% 0.00in /  0mm 0.0 W/m2
Olympia, Windhoek, Namibia
Compliments of Weather Underground - 3 mb